Stations météo

réclame
Mon MeteoGroup
Mende, France (7554): Température de l'air & dewpoint: 13.12.2018 15:00:00 - 19.12.2018 15:00:00 (CET)Mende, France (7554): Température de l'air 5cm: 13.12.2018 15:00:00 - 19.12.2018 15:00:00 (CET)Mende, France (7554): Température de l'air -20cm & Température de l'air -100cm: 13.12.2018 15:00:00 - 19.12.2018 15:00:00 (CET)Mende, France (7554): Vitesse du vent & gusts: 13.12.2018 15:00:00 - 19.12.2018 15:00:00 (CET)Mende, France (7554): Direction du vent: 13.12.2018 15:00:00 - 19.12.2018 15:00:00 (CET)Mende, France (7554): visibility: 13.12.2018 15:00:00 - 19.12.2018 15:00:00 (CET)Mende, France (7554): Ensoleillement: 13.12.2018 15:00:00 - 19.12.2018 15:00:00 (CET)Mende, France (7554): Quantités de précipitations: 13.12.2018 15:00:00 - 19.12.2018 15:00:00 (CET)
Date & Time tt [°C] td [°C] tt 5cm [°C] tt -20cm [°C] tt -100cm [°C] ff [km/h] ff [knt] fx [km/h] fx [knt] dd vv [km] sd [min] rr [mm]
19.12.2018 15:00:00 6,6 4,3 7,0 5,2 8,1 13 7 21 11 W 20 6 0,0
19.12.2018 14:00:00 6,8 5,4 7,9 5,1 8,1 7 4 16 9 WSW 20 1 0,0
19.12.2018 13:00:00 6,4 5,2 6,4 5,1 8,1 0 0 5 3 N 20 0 0,0
19.12.2018 12:00:00 6,5 4,2 7,3 5,1 8,1 0 0 7 4 N 20 32 0,0
19.12.2018 11:00:00 5,8 5,1 4,9 5,0 8,1 5 3 15 8 ESE 20 6 0,0
19.12.2018 10:00:00 5,0 4,3 4,8 5,0 8,1 8 4 13 7 ENE 17 0 1,6
19.12.2018 09:00:00 5,1 4,4 4,7 5,0 8,1 0 0 13 7 N 7 0 5,0
19.12.2018 08:00:00 5,2 4,5 4,9 4,9 8,2 6 4 13 7 WNW 0,5 0 3,4
19.12.2018 07:00:00 5,4 4,5 5,0 4,9 8,1 4 2 14 7 W 1,7 0 0,6
19.12.2018 06:00:00 5,6 4,6 5,1 4,9 8,2 4 2 21 12 SE 20 0 0,6
19.12.2018 05:00:00 5,9 4,4 5,1 4,8 8,2 11 6 23 12 SSE 12 0 0,2
19.12.2018 04:00:00 6,1 4,1 5,4 4,8 8,2 7 4 19 10 SE 20 0 0,0
19.12.2018 03:00:00 6,1 3,6 5,6 4,8 8,2 8 4 23 13 SSE 20 0 0,0
19.12.2018 02:00:00 5,8 3,1 - - - 4 2 13 7 SSE 20 - 0,0
19.12.2018 01:00:00 6,0 3,2 5,8 4,7 8,2 11 6 33 18 SSE 20 0 0,0
19.12.2018 00:00:00 6,0 3,0 5,7 4,6 8,2 18 10 35 19 SE 20 0 0,0
18.12.2018 23:00:00 6,0 3,0 5,5 4,6 8,2 15 8 37 20 SE 20 0 0,0
18.12.2018 22:00:00 5,9 2,4 5,4 4,5 8,2 19 10 51 28 SE 20 0 0,0
18.12.2018 21:00:00 5,7 1,4 5,2 4,5 8,2 17 9 46 25 SE 20 0 0,0
18.12.2018 20:00:00 6,1 3,1 5,8 4,5 8,2 15 8 39 21 SE 20 0 0,0
18.12.2018 19:00:00 6,0 3,0 5,5 4,4 8,2 20 11 40 22 SE 20 0 0,0
18.12.2018 18:00:00 5,8 2,8 5,4 4,4 8,2 10 5 47 26 SSE 20 0 0,0
18.12.2018 17:00:00 5,6 2,6 5,4 4,4 8,2 22 12 50 27 SE 20 0 0,0
18.12.2018 16:00:00 5,5 1,8 5,2 4,4 8,2 18 10 45 24 SE 20 0 0,0
18.12.2018 15:00:00 5,2 0,9 5,2 4,4 8,2 14 8 49 26 SE 20 0 0,0
18.12.2018 14:00:00 5,4 1,1 5,8 4,4 8,2 20 11 41 22 SE 20 0 0,0
18.12.2018 13:00:00 5,3 0,3 5,8 4,4 8,2 8 4 37 20 SE 20 2 0,0
18.12.2018 12:00:00 3,3 -2,2 4,8 4,5 8,2 4 2 14 8 WNW 20 9 0,0
18.12.2018 11:00:00 3,1 -2,6 3,9 4,6 8,2 8 4 24 13 E 20 54 0,0
18.12.2018 10:00:00 1,7 -3,4 -1,5 4,6 8,2 11 6 22 12 E 20 60 0,0
18.12.2018 09:00:00 -0,3 -4,4 -2,9 4,7 8,3 6 3 15 8 E 20 16 0,0
18.12.2018 08:00:00 -2,0 -4,3 -2,9 4,7 8,2 9 5 13 7 ESE 20 0 -
18.12.2018 07:00:00 -2,0 -3,7 -2,8 4,8 8,2 10 5 16 8 ESE 20 0 0,0
18.12.2018 06:00:00 -1,6 -3,3 -2,4 4,9 8,3 8 5 14 8 E 20 0 0,0
18.12.2018 05:00:00 -1,4 -2,7 -2,3 4,9 8,2 9 5 15 8 ESE 20 0 0,0
18.12.2018 04:00:00 -1,4 -2,5 -2,1 5,0 8,3 10 5 16 9 E 20 0 0,0
18.12.2018 03:00:00 -0,3 -2,2 -2,7 5,0 8,3 9 5 18 10 E 20 0 0,0
18.12.2018 02:00:00 -0,5 -1,8 -2,0 5,1 8,2 7 4 15 8 E 20 0 0,0
18.12.2018 01:00:00 -0,6 -1,3 -2,4 5,1 8,3 8 4 14 7 E 20 0 0,0
18.12.2018 00:00:00 -1,1 -1,8 -2,1 5,2 8,3 6 4 14 7 E 20 0 0,0
17.12.2018 23:00:00 -0,4 -1,1 -1,4 5,2 8,4 10 5 13 7 SE 20 0 0,0
17.12.2018 22:00:00 0,1 -0,8 -2,7 5,2 8,3 7 4 11 6 ESE 11 0 0,0
17.12.2018 21:00:00 0,0 -1,1 -2,2 5,2 8,3 6 3 9 5 WNW 20 0 0,0
17.12.2018 20:00:00 1,5 -0,6 -1,0 5,2 8,4 3 2 14 8 E 19 0 0,0
17.12.2018 19:00:00 2,1 -0,3 -1,4 5,1 8,3 4 2 7 4 ENE 20 0 0,0
17.12.2018 18:00:00 2,0 -0,4 -1,0 5,1 8,4 5 3 11 6 N 20 0 0,0
17.12.2018 17:00:00 3,6 -0,8 1,2 5,0 8,3 0 0 25 13 N 20 17 0,0
17.12.2018 16:00:00 5,4 0,6 5,4 5,0 8,4 9 5 32 17 NW 20 44 0,0
17.12.2018 15:00:00 5,6 0,2 4,2 4,9 8,4 13 7 34 18 N 20 28 0,0
17.12.2018 14:00:00 4,5 0,1 4,8 4,9 8,4 22 12 42 23 NW 20 7 0,0
17.12.2018 13:00:00 5,2 1,5 4,6 4,9 8,4 21 11 41 22 NW 20 18 0,0
17.12.2018 12:00:00 4,1 1,3 4,9 4,9 8,4 16 9 34 18 WNW 20 2 0,0
17.12.2018 11:00:00 3,3 0,7 3,9 5,0 8,4 18 10 35 19 NW 20 41 0,0
17.12.2018 10:00:00 2,5 0,9 0,3 5,0 8,4 14 8 26 14 NNW 20 13 0,0
17.12.2018 09:00:00 0,9 -0,1 -0,4 5,0 8,4 13 7 22 12 NW 20 5 0,0
17.12.2018 08:00:00 1,2 -0,1 0,2 5,0 8,4 15 8 24 13 WNW 20 0 0,0
17.12.2018 07:00:00 1,8 0,8 1,5 5,0 8,4 8 4 21 11 WNW 20 0 0,0
17.12.2018 06:00:00 2,0 0,8 1,4 5,0 8,4 7 4 20 11 WNW 20 0 0,0
17.12.2018 05:00:00 2,0 0,5 0,3 5,0 8,5 14 8 29 16 WNW 20 0 0,0
17.12.2018 04:00:00 1,9 0,6 0,6 5,0 8,5 16 9 34 19 WNW 20 0 0,2
17.12.2018 03:00:00 2,5 1,8 1,6 5,0 8,5 15 8 38 21 WNW 20 0 0,0
17.12.2018 02:00:00 2,3 1,9 2,1 5,0 8,5 21 11 45 24 WNW 20 0 0,0
17.12.2018 01:00:00 2,5 2,1 2,3 5,0 8,5 6 4 16 9 W 20 0 0,0
17.12.2018 00:00:00 2,6 2,0 2,4 5,0 8,5 5 3 14 8 WSW 1,0 0 0,2
16.12.2018 23:00:00 2,5 1,9 2,1 4,9 8,5 5 3 9 5 W 20 0 0,0
16.12.2018 22:00:00 2,3 1,7 1,8 4,9 8,6 5 3 17 9 W 20 0 0,0
16.12.2018 21:00:00 2,3 1,7 1,1 4,8 8,5 5 3 15 8 WSW 20 0 0,2
16.12.2018 20:00:00 2,7 2,1 2,4 4,8 8,6 10 5 26 14 WNW 20 0 0,4
16.12.2018 19:00:00 4,3 3,9 4,0 4,8 8,6 5 3 9 5 W 2,2 0 2,8
16.12.2018 18:00:00 4,3 3,9 4,0 4,7 8,6 3 2 8 4 E 1,7 0 0,4
16.12.2018 17:00:00 4,3 3,9 4,2 4,7 8,6 5 3 8 5 ESE 4,5 0 0,2
16.12.2018 16:00:00 4,6 4,2 4,8 4,7 8,6 4 2 8 4 ESE 2,3 0 0,0
16.12.2018 15:00:00 4,5 4,1 4,3 4,6 8,6 2 1 21 11 NW 11 0 0,0
16.12.2018 14:00:00 4,5 4,1 4,7 4,6 8,6 3 1 11 6 WNW 8 0 0,4
16.12.2018 13:00:00 4,6 4,2 4,9 4,6 8,6 0 0 3 2 N 1,8 0 0,2
16.12.2018 12:00:00 4,3 3,9 4,4 4,5 8,6 0 0 8 4 N 16 0 0,0
16.12.2018 11:00:00 3,9 3,5 3,5 4,5 8,6 0 0 9 5 N 10 0 0,0
16.12.2018 10:00:00 3,4 3,0 3,1 4,5 8,7 5 3 12 7 ESE 0,2 0 0,0
16.12.2018 09:00:00 3,3 2,9 2,8 4,5 8,6 5 3 9 5 WSW 0,3 0 0,4
16.12.2018 08:00:00 3,2 2,8 2,9 4,5 8,7 6 3 15 8 W 0,1 0 0,0
16.12.2018 07:00:00 2,9 2,5 2,4 4,4 8,7 4 2 8 4 W 0,2 0 0,0
16.12.2018 06:00:00 3,3 2,9 2,9 4,4 8,6 2 1 8 4 ESE 8 0 0,4
16.12.2018 05:00:00 2,8 2,4 2,0 4,4 8,7 3 2 12 7 SSE 2,3 0 0,0
16.12.2018 04:00:00 2,4 1,8 2,3 4,4 8,7 0 0 6 3 N 0,3 0 0,2
16.12.2018 03:00:00 2,7 2,1 1,3 4,4 8,7 0 0 9 5 N 7 0 0,6
16.12.2018 02:00:00 1,5 0,9 1,3 4,4 8,7 8 4 13 7 WSW 0,2 0 1,2
16.12.2018 01:00:00 2,0 1,4 1,2 4,4 8,7 5 3 11 6 ESE 3,2 0 0,8
16.12.2018 00:00:00 1,8 1,2 1,0 4,4 8,7 6 3 10 6 E 6 0 0,0
15.12.2018 23:00:00 1,1 0,4 0,9 4,4 8,7 5 3 11 6 ESE 1,1 0 0,2
15.12.2018 22:00:00 1,2 0,3 0,9 4,4 8,7 5 3 8 5 ESE 7 0 0,0
15.12.2018 21:00:00 1,1 0,1 0,5 4,4 8,7 4 2 7 4 ESE 11 0 0,0
15.12.2018 20:00:00 0,7 -0,5 0,4 4,4 8,7 0 0 3 1 N 6 0 0,0
15.12.2018 19:00:00 0,9 -0,4 0,1 4,4 8,7 3 1 5 3 SE 10 0 0,0
15.12.2018 18:00:00 0,3 -0,8 -0,1 4,3 8,7 3 2 9 5 SE 12 0 0,0
15.12.2018 17:00:00 0,7 -0,6 0,4 4,3 8,7 4 2 8 4 E 9 0 0,4
15.12.2018 16:00:00 0,8 -2,3 0,3 4,3 8,8 2 1 6 3 ENE 14 0 0,2
15.12.2018 15:00:00 0,9 -2,9 0,7 4,4 8,8 2 1 6 4 NNW 17 0 0,2
15.12.2018 14:00:00 1,2 -3,1 2,4 4,4 8,8 0 0 10 5 N 20 0 0,0
15.12.2018 13:00:00 0,4 -3,3 1,5 4,5 8,8 6 3 11 6 W 20 16 0,0
15.12.2018 12:00:00 -0,8 -3,8 0,8 4,5 8,8 5 3 11 6 W 19 47 0,0
15.12.2018 11:00:00 -2,5 -3,8 -1,0 4,6 8,8 9 5 16 9 ESE 17 60 0,0
15.12.2018 10:00:00 -4,2 -4,7 -5,5 4,7 8,8 0 0 0 0 N 7 53 0,0
15.12.2018 09:00:00 -5,2 -5,7 -8,3 4,8 8,8 0 0 9 5 N 10 18 0,0
15.12.2018 08:00:00 -6,2 -6,9 -8,5 4,8 8,8 0 0 9 5 N 11 0 0,0
15.12.2018 07:00:00 -6,1 -6,8 -8,7 4,9 8,9 0 0 9 5 N 11 0 0,0
15.12.2018 06:00:00 -5,9 -6,7 -9,4 5,0 8,8 3 1 8 4 WSW 11 0 0,0
15.12.2018 05:00:00 -5,7 -6,5 -8,2 5,1 8,8 2 1 7 4 SE 20 0 0,0
15.12.2018 04:00:00 -5,3 -6,1 -7,9 5,1 8,8 3 2 13 7 W 14 0 0,0
15.12.2018 03:00:00 -5,0 -5,8 -7,6 5,2 8,9 4 2 9 5 WSW 14 0 0,0
15.12.2018 02:00:00 -4,3 -5,1 -7,6 5,2 8,9 3 1 12 6 W 20 0 0,0
15.12.2018 01:00:00 -3,7 -4,5 -6,0 5,3 8,9 7 4 16 9 WSW 19 0 0,0
15.12.2018 00:00:00 -2,9 -3,4 -4,4 5,3 8,9 6 4 16 9 WSW 20 0 0,0
14.12.2018 23:00:00 -3,2 -3,7 -5,7 5,3 8,9 6 3 14 8 W 18 0 0,0
14.12.2018 22:00:00 -2,7 -3,2 -4,8 5,3 8,9 7 4 15 8 W 1,1 0 0,0
14.12.2018 21:00:00 -2,5 -3,2 -4,7 5,3 8,9 3 2 12 6 WNW 12 0 0,0
14.12.2018 20:00:00 -2,0 -2,8 -4,1 5,2 8,9 5 3 10 6 WNW 19 0 0,0
14.12.2018 19:00:00 -1,3 -2,3 -2,7 5,1 8,9 6 3 16 8 WNW 19 0 0,0
14.12.2018 18:00:00 -0,5 -1,8 -1,6 5,1 8,9 6 4 18 10 WSW 20 0 0,0
14.12.2018 17:00:00 1,2 -1,2 0,3 5,0 9,0 13 7 24 13 WSW 20 42 0,0
14.12.2018 16:00:00 4,3 -1,3 3,4 4,9 9,0 10 5 23 12 WNW 20 53 0,0
14.12.2018 15:00:00 4,5 -0,9 7,1 4,9 9,0 14 8 29 16 NW 20 58 0,0
14.12.2018 14:00:00 3,4 -0,4 4,9 4,9 9,0 16 8 24 13 NW 20 41 0,0
14.12.2018 13:00:00 3,4 2,4 3,2 4,9 9,0 9 5 23 12 WNW 20 15 0,0
14.12.2018 12:00:00 2,0 1,6 3,1 4,9 9,0 9 5 18 10 W 20 3 0,0
14.12.2018 11:00:00 1,6 1,2 1,5 4,9 9,0 4 2 15 8 W 9 0 0,0
14.12.2018 10:00:00 0,8 0,5 0,1 4,9 9,0 9 5 16 8 W 0,2 6 0,0
14.12.2018 09:00:00 0,5 0,1 0,2 4,9 9,1 0 0 9 5 N 0,1 0 0,0
14.12.2018 08:00:00 0,4 0,0 0,3 4,9 9,0 2 1 8 4 W 0,1 0 0,0
14.12.2018 07:00:00 0,7 0,3 0,4 4,9 9,0 4 2 7 4 W 0,1 0 0,0
14.12.2018 06:00:00 0,8 0,4 0,7 4,9 9,0 0 0 4 2 N 0,5 0 0,2
14.12.2018 05:00:00 0,7 0,3 0,5 4,9 9,0 0 0 5 3 N 0,3 0 0,0
14.12.2018 04:00:00 0,8 0,4 0,7 4,9 9,1 2 1 4 2 WSW 0,1 0 0,0
14.12.2018 03:00:00 0,7 0,3 0,3 4,9 9,1 0 0 0 0 N 0,9 0 0,2
14.12.2018 02:00:00 0,7 0,3 0,3 4,9 9,1 0 0 2 1 N 0,4 0 0,0
14.12.2018 01:00:00 0,8 0,4 0,5 4,9 9,1 2 1 5 3 SE 0,2 0 0,2
14.12.2018 00:00:00 0,7 0,1 0,2 4,9 9,1 2 1 4 2 SE 4,3 0 0,2
13.12.2018 23:00:00 0,9 0,3 0,4 4,9 9,1 2 1 4 2 WSW 0,3 0 1,0
13.12.2018 22:00:00 1,3 0,7 1,0 4,9 9,1 3 1 4 2 W 0,2 0 0,8
13.12.2018 21:00:00 1,5 0,8 1,2 4,8 9,1 0 0 4 2 N 0,3 0 0,4
13.12.2018 20:00:00 1,7 1,0 1,4 4,8 9,1 3 1 6 3 W 0,9 0 0,2
13.12.2018 19:00:00 1,8 0,9 1,6 4,7 9,1 4 2 5 3 WSW 0,8 0 0,2
13.12.2018 18:00:00 2,0 0,8 1,6 4,7 9,1 0 0 5 3 N 10 0 0,2
13.12.2018 17:00:00 2,4 0,9 1,8 4,7 9,1 4 2 9 5 W 13 0 0,4
13.12.2018 16:00:00 3,1 0,7 2,9 4,7 9,2 2 1 10 5 WNW 20 0 0,0
13.12.2018 15:00:00 3,4 0,4 3,8 4,7 9,1 4 2 20 11 NW 20 0 0,0

tt = Température de l'air
td = dewpoint
tt 5cm = Température de l'air 5cm
tt -20cm = Température de l'air -20cm
tt -100cm = Température de l'air -100cm
ff = Vitesse du vent
fx = gusts
dd = Direction du vent
vv = visibility
sd = Ensoleillement
rr = Quantités de précipitations

stations d'obs. à proximité